Time;durP1;ratioP1;P1;durP2;ratioP2;P2;SDS_P1;SDS_P2;PMS_P1;PMS_P2;Temp;Humidity;BMP_temperature;BMP_pressure;BME280_temperature;BME280_humidity;BME280_pressure;Samples;Min_cycle;Max_cycle;Signal;HPM_P1;HPM_P2
2023/04/19 00:01:36;;;;;;;13.07;10.17;;;14.30;50.10;;;;;;5033359;28;20189;-50
2023/04/19 00:04:02;;;;;;;11.50;10.30;;;14.40;50.10;;;;;;5033262;28;20404;-49
2023/04/19 00:06:29;;;;;;;10.90;9.60;;;14.40;50.00;;;;;;5033327;28;20187;-49
2023/04/19 00:08:56;;;;;;;12.38;9.38;;;14.30;49.90;;;;;;5033462;28;20228;-49
2023/04/19 00:11:22;;;;;;;11.57;10.38;;;14.30;49.90;;;;;;5033056;28;20202;-49
2023/04/19 00:13:48;;;;;;;10.90;9.25;;;14.30;50.00;;;;;;5032941;28;20170;-48
2023/04/19 00:16:14;;;;;;;13.80;9.90;;;14.30;50.20;;;;;;5033283;28;20181;-48
2023/04/19 00:18:40;;;;;;;11.73;9.30;;;14.40;49.90;;;;;;5033103;28;20428;-49
2023/04/19 00:21:06;;;;;;;10.37;9.27;;;14.40;49.60;;;;;;5033147;28;20189;-49
2023/04/19 00:23:32;;;;;;;11.07;8.70;;;14.30;49.70;;;;;;5032809;28;20435;-49
2023/04/19 00:25:57;;;;;;;11.30;8.60;;;14.30;49.70;;;;;;5032847;28;20177;-49
2023/04/19 00:28:24;;;;;;;8.53;7.63;;;14.30;49.50;;;;;;5033249;28;20193;-49
2023/04/19 00:30:50;;;;;;;12.75;9.55;;;14.20;49.50;;;;;;5033114;28;20235;-49
2023/04/19 00:33:16;;;;;;;9.83;8.03;;;14.20;49.60;;;;;;5032524;28;20257;-48
2023/04/19 00:35:42;;;;;;;12.80;7.90;;;14.10;49.50;;;;;;5032924;28;20190;-49
2023/04/19 00:38:07;;;;;;;13.30;9.30;;;14.10;49.60;;;;;;5032696;28;20209;-49
2023/04/19 00:40:33;;;;;;;11.97;8.13;;;14.10;49.60;;;;;;5032638;28;20562;-48
2023/04/19 00:42:59;;;;;;;11.53;8.70;;;14.10;49.70;;;;;;5032646;28;20459;-48
2023/04/19 00:45:25;;;;;;;12.13;8.83;;;14.00;49.60;;;;;;5032561;28;20428;-48
2023/04/19 00:47:52;;;;;;;9.85;7.90;;;14.00;49.50;;;;;;5032528;28;20190;-49
2023/04/19 00:50:18;;;;;;;11.07;9.00;;;14.00;49.60;;;;;;5032857;28;20177;-48
2023/04/19 00:52:45;;;;;;;13.73;9.07;;;14.00;49.60;;;;;;5032213;28;20283;-48
2023/04/19 00:55:12;;;;;;;10.30;8.07;;;14.00;49.60;;;;;;5032330;28;20684;-48
2023/04/19 00:57:38;;;;;;;10.05;7.90;;;14.00;49.50;;;;;;5032581;28;20523;-48
2023/04/19 01:00:06;;;;;;;9.63;7.63;;;14.00;49.40;;;;;;5032293;28;20197;-49
2023/04/19 01:02:32;;;;;;;9.77;7.72;;;14.00;49.30;;;;;;5032329;28;20424;-48
2023/04/19 01:04:57;;;;;;;11.27;6.97;;;14.00;49.00;;;;;;5032329;28;20540;-47
2023/04/19 01:07:23;;;;;;;12.17;8.70;;;14.00;48.90;;;;;;5032219;28;20210;-49
2023/04/19 01:09:50;;;;;;;8.63;7.80;;;13.90;48.90;;;;;;5014425;28;20194;-49
2023/04/19 01:12:16;;;;;;;13.65;9.10;;;14.00;48.80;;;;;;5031592;28;20284;-49
2023/04/19 01:14:42;;;;;;;9.43;7.80;;;13.90;48.80;;;;;;5032097;28;20265;-49
2023/04/19 01:17:08;;;;;;;12.90;8.73;;;13.90;48.90;;;;;;5032359;28;20181;-49
2023/04/19 01:19:35;;;;;;;9.07;6.72;;;13.90;48.70;;;;;;5031969;28;20194;-48
2023/04/19 01:22:02;;;;;;;9.80;7.70;;;13.90;48.70;;;;;;5031854;28;20269;-49
2023/04/19 01:24:29;;;;;;;9.68;7.60;;;13.90;48.70;;;;;;5031984;28;20216;-49
2023/04/19 01:26:55;;;;;;;8.50;7.22;;;13.90;48.70;;;;;;5032207;28;20178;-48
2023/04/19 01:29:21;;;;;;;9.52;7.30;;;13.80;48.60;;;;;;5032057;28;20562;-49
2023/04/19 01:31:52;;;;;;;8.43;6.30;;;13.90;48.80;;;;;;5031662;28;20259;-47
2023/04/19 01:34:18;;;;;;;11.05;7.80;;;13.90;48.80;;;;;;5031936;28;20408;-49
2023/04/19 01:36:44;;;;;;;9.75;7.35;;;13.90;48.80;;;;;;5031876;28;20185;-48
2023/04/19 01:39:10;;;;;;;11.10;7.73;;;13.90;48.70;;;;;;5032070;28;20194;-49
2023/04/19 01:41:36;;;;;;;11.10;7.87;;;13.90;48.50;;;;;;5031808;28;20186;-49
2023/04/19 01:44:02;;;;;;;12.23;8.63;;;13.80;48.40;;;;;;5031948;28;20440;-49
2023/04/19 01:46:27;;;;;;;9.60;8.43;;;13.80;48.20;;;;;;5031839;28;20959;-48
2023/04/19 01:48:53;;;;;;;9.73;8.13;;;13.80;48.30;;;;;;5031720;28;20280;-48
2023/04/19 01:51:20;;;;;;;9.50;8.50;;;13.80;48.40;;;;;;5031920;28;20208;-49
2023/04/19 01:53:51;;;;;;;11.20;8.30;;;13.80;48.30;;;;;;5031721;28;20173;-49
2023/04/19 01:56:17;;;;;;;11.65;7.88;;;13.80;48.20;;;;;;5032028;28;20167;-48
2023/04/19 01:58:42;;;;;;;11.40;8.63;;;13.80;48.10;;;;;;5031819;28;20244;-49
2023/04/19 02:01:11;;;;;;;8.47;7.30;;;13.80;48.20;;;;;;5031646;28;20707;-48
2023/04/19 02:03:37;;;;;;;12.50;8.90;;;13.80;48.20;;;;;;5031349;28;20189;-49
2023/04/19 02:06:03;;;;;;;11.65;8.05;;;13.80;48.30;;;;;;5031647;28;20209;-48
2023/04/19 02:08:29;;;;;;;10.20;8.80;;;13.80;48.30;;;;;;5013951;28;20225;-49
2023/04/19 02:10:54;;;;;;;9.20;6.63;;;13.80;48.20;;;;;;5013796;28;20297;-49
2023/04/19 02:13:29;;;;;;;15.00;9.20;;;13.80;48.10;;;;;;5031599;28;20174;-48
2023/04/19 02:15:55;;;;;;;11.73;8.90;;;13.90;48.10;;;;;;5031752;28;20517;-48
2023/04/19 02:18:20;;;;;;;10.83;7.83;;;13.80;47.90;;;;;;5031643;28;20273;-49
2023/04/19 02:20:46;;;;;;;10.63;8.40;;;13.80;47.80;;;;;;5031513;28;20515;-49
2023/04/19 02:23:12;;;;;;;11.13;8.63;;;13.80;47.80;;;;;;5032888;28;20200;-49
2023/04/19 02:25:37;;;;;;;11.00;8.63;;;13.80;47.90;;;;;;5035342;28;20182;-49
2023/04/19 02:28:03;;;;;;;10.70;8.23;;;13.80;47.80;;;;;;5035137;28;20193;-49
2023/04/19 02:30:29;;;;;;;12.17;9.10;;;13.80;47.80;;;;;;5035031;28;20173;-49
2023/04/19 02:32:55;;;;;;;9.90;8.30;;;13.80;47.80;;;;;;5034817;28;20436;-49
2023/04/19 02:35:20;;;;;;;10.27;8.17;;;13.80;47.80;;;;;;5035007;28;20169;-49
2023/04/19 02:37:46;;;;;;;7.77;6.97;;;13.80;47.60;;;;;;5035144;28;20174;-48
2023/04/19 02:40:12;;;;;;;11.97;8.70;;;13.70;47.50;;;;;;5035094;28;20166;-48
2023/04/19 02:42:37;;;;;;;13.70;8.60;;;13.70;47.40;;;;;;5034726;28;20184;-50
2023/04/19 02:45:04;;;;;;;11.37;8.80;;;13.70;47.50;;;;;;5034855;28;20174;-48
2023/04/19 02:47:30;;;;;;;11.35;8.90;;;13.60;47.60;;;;;;5034636;28;20182;-48
2023/04/19 02:49:55;;;;;;;13.03;8.33;;;13.60;47.60;;;;;;5034921;28;20210;-48
2023/04/19 02:52:24;;;;;;;13.10;8.50;;;13.60;47.70;;;;;;5034394;28;20217;-49
2023/04/19 02:54:50;;;;;;;9.95;8.68;;;13.60;47.60;;;;;;5034609;28;20170;-49
2023/04/19 02:57:16;;;;;;;11.07;9.03;;;13.60;47.60;;;;;;5034676;28;20265;-48
2023/04/19 02:59:42;;;;;;;9.40;7.50;;;13.60;47.40;;;;;;5034543;28;20535;-48
2023/04/19 03:02:07;;;;;;;10.47;8.03;;;13.50;47.50;;;;;;5034297;28;20278;-49
2023/04/19 03:04:33;;;;;;;11.27;8.50;;;13.50;47.50;;;;;;5034431;28;20182;-49
2023/04/19 03:06:59;;;;;;;10.73;8.63;;;13.40;47.40;;;;;;5034595;28;20193;-49
2023/04/19 03:09:24;;;;;;;11.10;9.93;;;13.50;47.50;;;;;;5034616;28;20688;-48
2023/04/19 03:11:50;;;;;;;10.83;8.90;;;13.40;47.40;;;;;;5034397;28;20554;-50
2023/04/19 03:14:16;;;;;;;19.70;9.47;;;13.40;47.40;;;;;;5034178;28;20462;-49
2023/04/19 03:16:42;;;;;;;14.83;10.10;;;13.40;47.30;;;;;;5034234;28;20174;-49
2023/04/19 03:19:07;;;;;;;13.20;8.90;;;13.30;47.50;;;;;;5034219;28;20178;-49
2023/04/19 03:21:33;;;;;;;12.83;10.53;;;13.30;47.50;;;;;;5034210;28;20170;-49
2023/04/19 03:23:59;;;;;;;13.20;9.83;;;13.30;47.50;;;;;;5034033;28;20170;-49
2023/04/19 03:26:24;;;;;;;14.57;11.73;;;13.30;47.70;;;;;;5034087;28;20538;-48
2023/04/19 03:28:50;;;;;;;15.17;10.87;;;13.30;47.70;;;;;;5034025;28;20201;-49
2023/04/19 03:31:16;;;;;;;15.60;10.03;;;13.30;47.70;;;;;;5033899;28;20280;-49
2023/04/19 03:33:42;;;;;;;15.20;12.77;;;13.30;47.50;;;;;;5033468;28;20416;-48
2023/04/19 03:36:07;;;;;;;16.53;12.10;;;13.30;47.40;;;;;;5034112;28;20181;-49
2023/04/19 03:38:33;;;;;;;12.73;11.13;;;13.40;47.20;;;;;;5033816;28;20186;-49
2023/04/19 03:40:59;;;;;;;19.00;14.93;;;13.20;47.30;;;;;;5033896;28;20437;-49
2023/04/19 03:43:25;;;;;;;14.87;13.27;;;13.20;47.40;;;;;;5033774;28;20228;-49
2023/04/19 03:45:50;;;;;;;17.80;13.30;;;13.20;47.50;;;;;;5034185;28;20227;-49
2023/04/19 03:48:16;;;;;;;15.07;11.80;;;13.20;47.30;;;;;;5033381;28;20685;-49
2023/04/19 03:50:42;;;;;;;15.10;12.43;;;13.20;47.30;;;;;;5033529;28;20420;-49
2023/04/19 03:53:08;;;;;;;14.00;12.47;;;13.10;47.20;;;;;;5033398;28;20253;-48
2023/04/19 03:55:33;;;;;;;15.90;12.20;;;13.10;47.20;;;;;;5033641;28;20193;-49
2023/04/19 03:57:59;;;;;;;14.30;12.37;;;13.00;46.90;;;;;;5033340;28;20662;-49
2023/04/19 04:00:26;;;;;;;14.93;12.10;;;13.00;47.00;;;;;;5033369;28;20197;-48
2023/04/19 04:02:52;;;;;;;13.90;10.93;;;12.90;47.20;;;;;;5033420;28;20542;-49
2023/04/19 04:05:18;;;;;;;13.10;10.77;;;12.90;47.20;;;;;;5033275;28;20185;-48
2023/04/19 04:07:43;;;;;;;15.20;11.43;;;12.90;47.20;;;;;;5033503;28;20416;-49
2023/04/19 04:10:09;;;;;;;15.37;11.97;;;12.90;47.10;;;;;;5033331;28;20182;-49
2023/04/19 04:12:35;;;;;;;15.97;12.03;;;12.90;47.30;;;;;;5032894;28;20205;-49
2023/04/19 04:15:01;;;;;;;12.70;9.70;;;12.90;47.10;;;;;;5033291;28;20448;-49
2023/04/19 04:17:27;;;;;;;13.20;10.90;;;12.80;46.50;;;;;;5033066;28;20176;-49
2023/04/19 04:19:53;;;;;;;15.07;10.33;;;12.80;46.70;;;;;;5033259;28;20198;-48
2023/04/19 04:22:19;;;;;;;10.13;9.10;;;12.80;46.80;;;;;;5032866;28;20178;-49
2023/04/19 04:24:44;;;;;;;11.68;9.40;;;12.70;46.60;;;;;;5032898;28;20279;-48
2023/04/19 04:27:10;;;;;;;13.43;10.43;;;12.70;46.30;;;;;;5032894;28;20178;-48
2023/04/19 04:29:37;;;;;;;16.53;9.50;;;12.60;46.30;;;;;;5032760;28;20198;-48
2023/04/19 04:32:09;;;;;;;11.55;8.95;;;12.60;46.30;;;;;;5032425;28;20685;-49
2023/04/19 04:34:35;;;;;;;14.38;8.88;;;12.60;46.40;;;;;;5032953;28;20210;-48
2023/04/19 04:37:02;;;;;;;9.20;7.90;;;12.60;46.30;;;;;;5032942;28;20182;-49
2023/04/19 04:39:29;;;;;;;14.55;9.05;;;12.50;45.90;;;;;;5032849;28;20236;-48
2023/04/19 04:41:56;;;;;;;9.80;7.75;;;12.50;46.00;;;;;;5032623;28;20182;-48
2023/04/19 04:44:22;;;;;;;10.05;7.63;;;12.40;45.90;;;;;;5032469;28;20181;-48
2023/04/19 04:46:48;;;;;;;10.50;7.40;;;12.40;45.70;;;;;;5032293;28;20232;-48
2023/04/19 04:49:14;;;;;;;13.40;7.70;;;12.40;45.40;;;;;;5032574;28;20693;-49
2023/04/19 04:51:40;;;;;;;13.40;8.50;;;12.40;45.00;;;;;;5032362;28;20543;-49
2023/04/19 04:54:05;;;;;;;9.67;7.73;;;12.40;45.00;;;;;;5032321;28;20254;-48
2023/04/19 04:56:31;;;;;;;13.50;8.17;;;12.30;44.60;;;;;;5032456;28;20650;-48
2023/04/19 04:58:58;;;;;;;11.30;8.00;;;12.30;44.70;;;;;;5032248;28;20920;-48
2023/04/19 05:01:23;;;;;;;10.40;7.40;;;12.20;44.80;;;;;;5032226;28;20566;-49
2023/04/19 05:03:50;;;;;;;8.67;6.53;;;12.20;44.80;;;;;;5032136;28;20178;-49
2023/04/19 05:06:15;;;;;;;9.02;6.93;;;12.20;44.80;;;;;;5032398;28;20185;-48
2023/04/19 05:08:41;;;;;;;14.03;8.70;;;12.20;45.20;;;;;;5032033;28;20323;-48
2023/04/19 05:11:07;;;;;;;10.53;6.87;;;12.30;45.40;;;;;;5032061;28;20281;-49
2023/04/19 05:13:33;;;;;;;9.80;7.45;;;12.40;45.10;;;;;;5032062;28;20174;-48
2023/04/19 05:15:59;;;;;;;9.17;6.63;;;12.50;44.50;;;;;;5032142;28;20316;-49
2023/04/19 05:18:24;;;;;;;11.87;6.37;;;12.60;43.80;;;;;;5032405;28;20194;-49
2023/04/19 05:20:50;;;;;;;6.90;4.80;;;12.60;43.20;;;;;;5032157;28;20586;-49
2023/04/19 05:23:17;;;;;;;8.47;5.93;;;12.60;42.30;;;;;;5031844;28;20181;-49
2023/04/19 05:25:43;;;;;;;9.07;7.10;;;12.60;41.40;;;;;;5032184;28;20227;-49
2023/04/19 05:28:08;;;;;;;8.50;5.20;;;12.60;41.70;;;;;;5031840;28;20681;-49
2023/04/19 05:30:34;;;;;;;6.40;5.50;;;12.70;41.60;;;;;;5032036;28;20232;-48
2023/04/19 05:33:00;;;;;;;6.80;5.10;;;12.60;40.50;;;;;;5032012;28;20185;-48
2023/04/19 05:35:25;;;;;;;9.93;5.17;;;12.60;40.70;;;;;;5031869;28;20531;-48
2023/04/19 05:37:51;;;;;;;9.90;5.37;;;12.60;40.40;;;;;;5031815;28;20177;-49
2023/04/19 05:40:18;;;;;;;7.73;3.93;;;12.60;40.20;;;;;;5031739;28;20178;-49
2023/04/19 05:42:43;;;;;;;6.40;4.18;;;12.50;39.80;;;;;;5031754;28;20224;-49
2023/04/19 05:45:10;;;;;;;7.37;4.60;;;12.50;39.20;;;;;;5032060;28;20182;-49
2023/04/19 05:47:35;;;;;;;6.18;4.47;;;12.40;39.40;;;;;;5031840;28;20277;-49
2023/04/19 05:50:02;;;;;;;6.43;4.57;;;12.40;39.20;;;;;;5031954;28;20229;-49
2023/04/19 05:52:28;;;;;;;9.93;3.95;;;12.40;39.10;;;;;;5031440;28;20215;-49
2023/04/19 05:54:54;;;;;;;5.03;3.13;;;12.30;39.30;;;;;;5031659;28;20535;-48
2023/04/19 05:57:20;;;;;;;10.80;4.00;;;12.50;39.30;;;;;;5031733;28;20174;-48
2023/04/19 05:59:46;;;;;;;4.33;3.43;;;12.60;37.60;;;;;;5035559;28;20827;-49
2023/04/19 06:02:11;;;;;;;7.33;4.80;;;12.60;37.90;;;;;;5035324;28;20207;-49
2023/04/19 06:04:37;;;;;;;5.53;4.10;;;12.70;37.90;;;;;;5035586;28;20412;-49
2023/04/19 06:07:03;;;;;;;6.70;3.10;;;12.70;38.30;;;;;;5035808;28;20410;-49
2023/04/19 06:09:29;;;;;;;9.33;3.47;;;12.70;36.80;;;;;;5035592;28;20189;-48
2023/04/19 06:11:55;;;;;;;8.07;4.00;;;12.60;37.10;;;;;;5035330;28;20628;-49
2023/04/19 06:14:21;;;;;;;5.25;3.22;;;12.50;36.90;;;;;;5035513;28;20174;-48
2023/04/19 06:16:47;;;;;;;5.30;3.85;;;12.50;37.00;;;;;;5035328;28;20634;-48
2023/04/19 06:19:13;;;;;;;3.77;2.90;;;12.60;37.00;;;;;;5035171;28;20197;-48
2023/04/19 06:21:39;;;;;;;5.50;3.10;;;12.60;36.30;;;;;;5035243;28;20219;-48
2023/04/19 06:24:07;;;;;;;6.10;3.10;;;12.60;35.90;;;;;;5035243;28;20585;-48
2023/04/19 06:26:33;;;;;;;5.63;3.38;;;12.70;36.60;;;;;;5035168;28;20440;-48
2023/04/19 06:28:59;;;;;;;5.07;3.10;;;12.70;35.80;;;;;;5035079;28;20621;-49
2023/04/19 06:31:24;;;;;;;5.03;3.10;;;12.70;36.10;;;;;;5035025;28;20205;-49
2023/04/19 06:33:50;;;;;;;4.30;3.23;;;12.80;36.20;;;;;;5035151;28;20181;-48
2023/04/19 06:36:16;;;;;;;5.27;3.80;;;12.90;36.00;;;;;;5034927;28;20459;-48
2023/04/19 06:38:43;;;;;;;4.27;2.90;;;13.00;35.90;;;;;;5034811;28;20197;-48
2023/04/19 06:41:09;;;;;;;5.70;2.90;;;13.00;33.60;;;;;;5034838;28;20186;-49
2023/04/19 06:43:35;;;;;;;3.70;3.25;;;13.00;34.00;;;;;;5034874;28;20186;-48
2023/04/19 06:46:03;;;;;;;4.05;2.50;;;13.00;33.60;;;;;;5034912;28;20668;-48
2023/04/19 06:48:29;;;;;;;5.72;3.10;;;13.00;33.80;;;;;;5034537;28;20713;-48
2023/04/19 06:50:55;;;;;;;5.85;3.10;;;12.90;33.40;;;;;;5035173;28;20174;-49
2023/04/19 06:53:22;;;;;;;5.13;3.20;;;12.90;33.40;;;;;;5034276;28;20177;-49
2023/04/19 06:55:48;;;;;;;3.55;2.92;;;13.00;33.50;;;;;;5034755;28;20425;-48
2023/04/19 06:58:13;;;;;;;4.10;2.90;;;13.00;33.90;;;;;;5034488;28;20213;-49
2023/04/19 07:00:39;;;;;;;3.90;2.87;;;13.20;33.40;;;;;;5034824;28;20432;-49
2023/04/19 07:03:05;;;;;;;4.60;2.50;;;13.20;32.70;;;;;;5034516;28;20773;-48
2023/04/19 07:05:31;;;;;;;3.53;2.40;;;13.30;33.60;;;;;;5034737;28;20413;-48
2023/04/19 07:07:57;;;;;;;5.97;3.30;;;13.40;33.70;;;;;;5034168;28;20826;-49
2023/04/19 07:10:23;;;;;;;4.72;3.30;;;13.50;31.20;;;;;;5033944;28;20166;-48
2023/04/19 07:12:49;;;;;;;8.60;3.73;;;13.60;33.10;;;;;;5034048;28;20198;-49
2023/04/19 07:15:15;;;;;;;2.92;2.65;;;13.70;33.20;;;;;;5034248;28;20459;-48
2023/04/19 07:17:41;;;;;;;5.30;3.07;;;13.80;32.90;;;;;;5034091;28;20178;-50
2023/04/19 07:20:08;;;;;;;3.23;2.50;;;13.90;33.00;;;;;;5034266;28;20417;-49
2023/04/19 07:22:34;;;;;;;3.65;2.30;;;14.10;32.10;;;;;;5034096;28;20589;-49
2023/04/19 07:25:00;;;;;;;5.30;2.88;;;14.10;31.50;;;;;;5033980;28;20237;-49
2023/04/19 07:27:26;;;;;;;4.50;2.60;;;14.20;31.70;;;;;;5034095;28;20178;-49
2023/04/19 07:29:52;;;;;;;6.53;3.33;;;14.30;31.80;;;;;;5034007;28;20433;-49
2023/04/19 07:32:18;;;;;;;3.53;3.05;;;14.30;31.30;;;;;;5033747;28;20538;-49
2023/04/19 07:34:45;;;;;;;3.85;2.78;;;14.40;31.30;;;;;;5033979;28;20189;-48
2023/04/19 07:37:11;;;;;;;3.65;2.85;;;14.50;31.90;;;;;;5034032;28;20578;-48
2023/04/19 07:39:37;;;;;;;4.00;2.55;;;14.60;31.80;;;;;;5033810;28;20225;-49
2023/04/19 07:42:03;;;;;;;5.10;3.08;;;14.60;31.30;;;;;;5033574;28;20667;-48
2023/04/19 07:44:29;;;;;;;3.93;2.50;;;14.80;31.10;;;;;;5033663;28;20174;-48
2023/04/19 07:46:54;;;;;;;4.73;3.60;;;14.80;30.90;;;;;;5033994;28;20182;-48
2023/04/19 07:49:20;;;;;;;5.80;4.37;;;14.80;29.40;;;;;;5033462;28;20455;-49
2023/04/19 07:51:46;;;;;;;5.77;3.47;;;14.90;31.10;;;;;;5033200;28;20204;-48
2023/04/19 07:54:12;;;;;;;7.73;4.83;;;15.10;30.60;;;;;;5033704;28;20239;-49
2023/04/19 07:56:37;;;;;;;3.30;3.00;;;15.20;31.10;;;;;;5033810;28;20176;-49
2023/04/19 07:59:03;;;;;;;8.13;5.40;;;15.40;30.80;;;;;;5033657;28;20190;-49
2023/04/19 08:01:29;;;;;;;9.67;6.10;;;15.50;30.90;;;;;;5033401;28;20181;-49
2023/04/19 08:03:55;;;;;;;5.07;3.67;;;15.60;31.00;;;;;;5033215;28;20201;-49
2023/04/19 08:06:20;;;;;;;5.60;3.73;;;15.80;31.20;;;;;;5033111;28;20538;-49
2023/04/19 08:08:47;;;;;;;4.67;3.10;;;15.90;30.50;;;;;;5033101;28;20197;-48
2023/04/19 08:11:13;;;;;;;3.50;2.60;;;16.00;30.10;;;;;;5033263;28;20362;-49
2023/04/19 08:13:39;;;;;;;5.30;2.77;;;16.00;30.20;;;;;;5032919;28;20692;-49
2023/04/19 08:16:05;;;;;;;5.07;2.90;;;16.10;31.10;;;;;;5033188;28;20170;-48
2023/04/19 08:18:31;;;;;;;5.28;3.58;;;16.30;30.10;;;;;;5032929;28;20194;-48
2023/04/19 08:20:57;;;;;;;4.63;3.20;;;16.20;29.70;;;;;;5032280;28;20174;-49
2023/04/19 08:23:23;;;;;;;4.57;3.17;;;16.20;29.50;;;;;;5032690;28;20566;-49
2023/04/19 08:25:49;;;;;;;4.70;3.22;;;16.30;30.20;;;;;;5033216;28;20173;-48
2023/04/19 08:28:16;;;;;;;5.25;3.60;;;16.40;29.70;;;;;;5032743;28;20202;-49
2023/04/19 08:30:42;;;;;;;6.43;3.35;;;16.50;29.90;;;;;;5032832;28;20181;-49
2023/04/19 08:33:08;;;;;;;5.10;3.80;;;16.60;30.60;;;;;;5032771;28;20170;-49
2023/04/19 08:35:37;;;;;;;4.53;3.07;;;16.80;29.90;;;;;;5032670;28;20205;-49
2023/04/19 08:38:03;;;;;;;4.20;3.25;;;16.80;30.10;;;;;;5032727;28;20503;-49
2023/04/19 08:40:32;;;;;;;15.40;4.00;;;16.80;29.80;;;;;;5032795;28;20183;-49
2023/04/19 08:42:58;;;;;;;8.25;4.40;;;16.80;29.00;;;;;;5032515;28;20208;-49
2023/04/19 08:45:27;;;;;;;4.67;3.83;;;16.80;30.10;;;;;;5032488;28;20597;-49
2023/04/19 08:47:54;;;;;;;8.13;3.83;;;16.90;30.90;;;;;;5032420;28;20186;-49
2023/04/19 08:50:21;;;;;;;3.55;2.75;;;17.00;30.60;;;;;;5032387;28;20265;-49
2023/04/19 08:52:47;;;;;;;5.55;4.15;;;17.20;30.70;;;;;;5032388;28;20613;-49
2023/04/19 08:55:14;;;;;;;6.35;3.40;;;17.30;30.50;;;;;;5032346;28;20725;-49
2023/04/19 08:57:40;;;;;;;5.05;3.80;;;17.40;30.30;;;;;;5032543;28;20201;-50
2023/04/19 09:00:09;;;;;;;7.00;3.95;;;17.50;30.10;;;;;;5032471;28;20233;-49
2023/04/19 09:02:46;;;;;;;5.97;3.67;;;17.60;29.30;;;;;;5032134;28;20190;-49
2023/04/19 09:05:13;;;;;;;3.35;3.05;;;17.60;28.00;;;;;;5032201;28;20177;-49
2023/04/19 09:07:39;;;;;;;6.95;3.80;;;17.50;29.40;;;;;;5032489;28;20182;-49
2023/04/19 09:10:13;;;;;;;6.00;4.53;;;17.50;29.70;;;;;;5032268;28;20213;-49
2023/04/19 09:12:39;;;;;;;7.30;4.90;;;17.50;30.20;;;;;;5031950;28;20666;-49
2023/04/19 09:15:09;;;;;;;10.38;4.43;;;17.50;29.50;;;;;;5032130;28;20169;-50
2023/04/19 09:17:40;;;;;;;5.13;3.53;;;17.50;29.60;;;;;;5031955;28;20516;-50
2023/04/19 09:20:07;;;;;;;6.57;3.88;;;17.50;28.60;;;;;;5031918;28;20728;-49
2023/04/19 09:22:33;;;;;;;4.63;3.92;;;17.50;29.50;;;;;;5032234;28;20201;-48
2023/04/19 09:25:02;;;;;;;7.22;4.22;;;17.60;29.20;;;;;;5032291;28;20181;-49
2023/04/19 09:27:30;;;;;;;6.15;3.80;;;17.70;30.20;;;;;;5032245;28;20174;-49
2023/04/19 09:29:58;;;;;;;5.80;4.40;;;17.70;28.30;;;;;;5032078;28;20615;-49
2023/04/19 09:32:24;;;;;;;10.45;4.20;;;17.60;29.10;;;;;;5031463;28;20303;-49
2023/04/19 09:34:55;;;;;;;8.45;4.03;;;17.70;29.90;;;;;;5031820;28;20652;-49
2023/04/19 09:37:22;;;;;;;5.63;3.92;;;17.80;29.70;;;;;;5031987;28;20224;-49
2023/04/19 09:39:48;;;;;;;6.00;3.85;;;17.90;29.70;;;;;;5031730;28;20289;-50
2023/04/19 09:42:13;;;;;;;6.90;5.40;;;17.90;28.90;;;;;;5031507;28;20249;-50
2023/04/19 09:44:39;;;;;;;5.23;3.90;;;17.90;28.70;;;;;;5031738;28;20404;-50
2023/04/19 09:47:25;;;;;;;4.80;3.90;;;17.90;28.60;;;;;;5031965;28;20223;-49
2023/04/19 09:50:10;;;;;;;6.25;4.10;;;17.90;29.00;;;;;;5031734;28;20527;-50
2023/04/19 09:52:36;;;;;;;5.63;4.65;;;17.90;29.10;;;;;;5031366;28;20305;-50
2023/04/19 09:55:05;;;;;;;8.60;4.07;;;17.80;29.80;;;;;;5031599;28;20174;-49
2023/04/19 09:57:32;;;;;;;6.35;4.57;;;17.90;29.10;;;;;;5031688;28;20573;-50
2023/04/19 09:59:59;;;;;;;7.18;4.30;;;17.80;29.30;;;;;;5031858;28;20243;-50
2023/04/19 10:02:33;;;;;;;4.43;3.38;;;17.70;28.90;;;;;;5031457;28;20268;-49
2023/04/19 10:04:59;;;;;;;4.97;3.75;;;17.70;29.40;;;;;;5031544;28;20200;-49
2023/04/19 10:07:26;;;;;;;4.95;3.55;;;17.60;29.00;;;;;;5031466;28;20181;-50
2023/04/19 10:09:55;;;;;;;4.20;3.65;;;17.70;29.30;;;;;;5031549;28;20204;-49
2023/04/19 10:12:25;;;;;;;4.43;3.55;;;17.80;29.50;;;;;;5031309;28;20698;-50
2023/04/19 10:14:57;;;;;;;4.55;3.80;;;18.00;29.10;;;;;;5031596;28;20189;-49
2023/04/19 10:17:23;;;;;;;9.05;5.00;;;18.20;28.90;;;;;;5031438;28;20178;-49
2023/04/19 10:20:05;;;;;;;5.03;4.18;;;18.30;29.50;;;;;;5031642;28;20197;-50
2023/04/19 10:22:32;;;;;;;4.78;4.28;;;18.50;28.60;;;;;;5031411;28;20554;-50
2023/04/19 10:25:15;;;;;;;5.63;3.80;;;18.40;27.60;;;;;;5031522;28;20188;-50
2023/04/19 10:27:44;;;;;;;6.32;4.97;;;18.30;27.10;;;;;;5031390;28;20662;-50
2023/04/19 10:30:25;;;;;;;6.78;4.00;;;18.10;27.50;;;;;;5031322;28;20201;-50
2023/04/19 10:32:54;;;;;;;4.10;3.42;;;18.00;28.00;;;;;;5031247;28;20224;-50
2023/04/19 10:35:30;;;;;;;5.78;3.63;;;18.00;28.20;;;;;;5031591;28;20178;-50
2023/04/19 10:38:13;;;;;;;8.00;4.72;;;18.00;28.00;;;;;;5031575;28;20533;-50
2023/04/19 10:40:53;;;;;;;6.95;4.18;;;18.20;28.60;;;;;;5031497;28;20166;-50
2023/04/19 10:43:20;;;;;;;4.28;3.53;;;18.30;28.40;;;;;;5031388;28;20180;-50
2023/04/19 10:45:46;;;;;;;5.22;4.72;;;18.30;28.30;;;;;;5034916;28;20174;-50
2023/04/19 10:48:32;;;;;;;4.72;3.63;;;18.30;28.00;;;;;;5034617;28;20218;-50
2023/04/19 10:51:10;;;;;;;7.32;4.22;;;18.20;27.60;;;;;;5034637;28;20181;-50
2023/04/19 10:53:55;;;;;;;4.88;3.63;;;18.10;28.40;;;;;;5034771;28;20300;-49
2023/04/19 10:56:33;;;;;;;7.25;4.00;;;17.90;27.30;;;;;;5034650;28;20224;-49
2023/04/19 10:59:06;;;;;;;5.88;4.32;;;17.60;26.60;;;;;;5034592;28;20324;-50
2023/04/19 11:01:38;;;;;;;5.75;3.40;;;17.40;27.70;;;;;;5034565;28;20705;-50
2023/04/19 11:04:04;;;;;;;4.63;3.90;;;17.10;27.70;;;;;;5034223;28;20193;-49
2023/04/19 11:06:34;;;;;;;5.95;4.10;;;17.10;28.40;;;;;;5034447;28;20178;-50
2023/04/19 11:09:01;;;;;;;6.97;3.65;;;17.30;30.50;;;;;;5034432;28;20208;-50
2023/04/19 11:11:27;;;;;;;5.43;3.47;;;17.70;30.40;;;;;;5034279;28;20566;-50
2023/04/19 11:13:55;;;;;;;4.57;3.87;;;18.20;29.20;;;;;;5034134;28;20170;-51
2023/04/19 11:16:20;;;;;;;4.60;3.78;;;18.50;29.80;;;;;;5034480;28;20419;-50
2023/04/19 11:18:46;;;;;;;9.47;6.83;;;18.70;27.10;;;;;;5034107;28;20284;-51
2023/04/19 11:21:17;;;;;;;4.60;3.80;;;18.70;27.70;;;;;;5034133;28;20170;-50
2023/04/19 11:23:43;;;;;;;6.03;3.38;;;18.60;26.60;;;;;;5034074;28;20245;-49
2023/04/19 11:26:11;;;;;;;4.57;4.13;;;18.40;26.50;;;;;;5034116;28;20256;-49
2023/04/19 11:28:38;;;;;;;5.20;3.95;;;18.20;26.30;;;;;;5033925;28;20202;-50
2023/04/19 11:31:05;;;;;;;4.55;3.10;;;18.00;26.00;;;;;;5034156;28;20269;-50
2023/04/19 11:33:34;;;;;;;3.58;3.22;;;17.70;27.30;;;;;;5033717;28;20673;-50
2023/04/19 11:36:00;;;;;;;5.38;3.70;;;17.50;27.80;;;;;;5033861;28;20730;-50
2023/04/19 11:38:27;;;;;;;4.82;3.92;;;17.40;28.00;;;;;;5033775;28;20748;-51
2023/04/19 11:41:04;;;;;;;6.00;3.50;;;17.30;28.40;;;;;;5033810;28;20256;-50
2023/04/19 11:43:36;;;;;;;4.80;3.45;;;17.30;28.70;;;;;;5033868;28;20169;-50
2023/04/19 11:46:07;;;;;;;4.32;3.47;;;17.20;28.50;;;;;;5033738;28;20204;-50
2023/04/19 11:48:33;;;;;;;3.10;2.80;;;17.20;28.20;;;;;;5033546;28;20210;-50
2023/04/19 11:51:00;;;;;;;5.05;3.88;;;17.10;27.90;;;;;;5033594;28;20170;-50
2023/04/19 11:53:27;;;;;;;8.43;4.00;;;16.80;27.30;;;;;;5033433;28;20706;-50
2023/04/19 11:55:54;;;;;;;3.90;3.30;;;16.60;27.10;;;;;;5033689;28;20188;-50
2023/04/19 11:58:35;;;;;;;5.90;4.38;;;16.50;27.80;;;;;;5033666;28;20186;-50
2023/04/19 12:01:06;;;;;;;4.95;3.65;;;16.40;28.10;;;;;;5033578;28;20178;-50
2023/04/19 12:03:33;;;;;;;21.02;4.35;;;16.30;28.10;;;;;;5033140;28;20180;-50
2023/04/19 12:06:07;;;;;;;4.40;2.25;;;16.30;28.50;;;;;;5033333;28;20185;-50
2023/04/19 12:08:46;;;;;;;5.22;3.85;;;16.30;28.50;;;;;;5033558;28;20186;-50
2023/04/19 12:11:13;;;;;;;7.95;4.70;;;16.30;29.30;;;;;;5033328;28;20205;-50
2023/04/19 12:13:43;;;;;;;3.55;3.03;;;16.50;28.90;;;;;;5032944;28;20178;-50
2023/04/19 12:16:09;;;;;;;4.82;3.17;;;16.60;28.70;;;;;;5033102;28;20228;-50
2023/04/19 12:18:49;;;;;;;4.32;3.58;;;16.70;28.30;;;;;;5033002;28;20189;-49
2023/04/19 12:21:28;;;;;;;7.57;3.80;;;16.80;28.70;;;;;;5033282;28;20582;-50
2023/04/19 12:23:59;;;;;;;7.28;3.80;;;16.90;28.10;;;;;;5032755;28;20177;-51
2023/04/19 12:26:29;;;;;;;4.50;4.00;;;16.90;28.10;;;;;;5033263;28;20648;-50
2023/04/19 12:28:56;;;;;;;5.93;4.28;;;16.90;27.60;;;;;;5033315;28;20194;-50
2023/04/19 12:31:21;;;;;;;6.40;3.60;;;16.80;28.00;;;;;;5032904;28;20250;-50
2023/04/19 12:33:48;;;;;;;5.17;3.93;;;16.80;28.30;;;;;;5032623;28;20526;-50
2023/04/19 12:36:14;;;;;;;5.90;3.50;;;16.80;28.10;;;;;;5032988;28;20181;-50
2023/04/19 12:38:40;;;;;;;5.33;4.30;;;16.80;28.20;;;;;;5032701;28;20186;-50
2023/04/19 12:41:06;;;;;;;5.47;4.03;;;16.80;28.50;;;;;;5032718;28;20471;-49
2023/04/19 12:43:32;;;;;;;4.33;3.33;;;16.90;28.70;;;;;;5032397;28;20416;-49